sensor_id;sensor_type;location;lat;lon;timestamp;P1;durP1;ratioP1;P2;durP2;ratioP2
18857;SDS011;9558;50.178;8.370;2023-04-06T00:00:42;1.85;;;0.95;;
18857;SDS011;9558;50.178;8.370;2023-04-06T00:03:29;0.45;;;0.45;;
18857;SDS011;9558;50.178;8.370;2023-04-06T00:06:16;0.20;;;0.20;;
18857;SDS011;9558;50.178;8.370;2023-04-06T00:09:02;0.45;;;0.40;;
18857;SDS011;9558;50.178;8.370;2023-04-06T00:11:51;3.70;;;0.52;;
18857;SDS011;9558;50.178;8.370;2023-04-06T00:14:37;1.00;;;0.30;;
18857;SDS011;9558;50.178;8.370;2023-04-06T00:17:25;0.30;;;0.30;;
18857;SDS011;9558;50.178;8.370;2023-04-06T00:20:12;7.28;;;0.47;;
18857;SDS011;9558;50.178;8.370;2023-04-06T00:22:59;0.95;;;0.50;;
18857;SDS011;9558;50.178;8.370;2023-04-06T00:25:46;0.98;;;0.65;;
18857;SDS011;9558;50.178;8.370;2023-04-06T00:28:34;0.50;;;0.50;;
18857;SDS011;9558;50.178;8.370;2023-04-06T00:31:21;0.28;;;0.28;;
18857;SDS011;9558;50.178;8.370;2023-04-06T00:34:09;0.90;;;0.88;;
18857;SDS011;9558;50.178;8.370;2023-04-06T00:36:56;0.30;;;0.28;;
18857;SDS011;9558;50.178;8.370;2023-04-06T00:39:42;0.20;;;0.20;;
18857;SDS011;9558;50.178;8.370;2023-04-06T00:42:29;0.40;;;0.40;;
18857;SDS011;9558;50.178;8.370;2023-04-06T00:45:18;0.55;;;0.52;;
18857;SDS011;9558;50.178;8.370;2023-04-06T00:48:05;0.43;;;0.30;;
18857;SDS011;9558;50.178;8.370;2023-04-06T00:50:52;0.75;;;0.75;;
18857;SDS011;9558;50.178;8.370;2023-04-06T00:53:39;0.40;;;0.40;;
18857;SDS011;9558;50.178;8.370;2023-04-06T00:56:26;0.52;;;0.47;;
18857;SDS011;9558;50.178;8.370;2023-04-06T00:59:13;0.77;;;0.40;;
18857;SDS011;9558;50.178;8.370;2023-04-06T01:02:01;0.35;;;0.35;;
18857;SDS011;9558;50.178;8.370;2023-04-06T01:04:48;0.45;;;0.43;;
18857;SDS011;9558;50.178;8.370;2023-04-06T01:07:35;0.80;;;0.63;;
18857;SDS011;9558;50.178;8.370;2023-04-06T01:10:22;0.75;;;0.75;;
18857;SDS011;9558;50.178;8.370;2023-04-06T01:13:10;2.30;;;1.10;;
18857;SDS011;9558;50.178;8.370;2023-04-06T01:15:57;1.13;;;0.17;;
18857;SDS011;9558;50.178;8.370;2023-04-06T01:21:32;0.20;;;0.20;;
18857;SDS011;9558;50.178;8.370;2023-04-06T01:24:20;0.43;;;0.43;;
18857;SDS011;9558;50.178;8.370;2023-04-06T01:27:07;0.65;;;0.40;;
18857;SDS011;9558;50.178;8.370;2023-04-06T01:29:54;1.23;;;0.73;;
18857;SDS011;9558;50.178;8.370;2023-04-06T01:32:41;2.83;;;1.50;;
18857;SDS011;9558;50.178;8.370;2023-04-06T01:35:28;0.22;;;0.20;;
18857;SDS011;9558;50.178;8.370;2023-04-06T01:38:16;2.10;;;0.57;;
18857;SDS011;9558;50.178;8.370;2023-04-06T01:41:04;0.65;;;0.40;;
18857;SDS011;9558;50.178;8.370;2023-04-06T01:43:51;0.52;;;0.52;;
18857;SDS011;9558;50.178;8.370;2023-04-06T01:46:39;0.35;;;0.25;;
18857;SDS011;9558;50.178;8.370;2023-04-06T01:49:26;0.32;;;0.32;;
18857;SDS011;9558;50.178;8.370;2023-04-06T01:52:13;0.30;;;0.30;;
18857;SDS011;9558;50.178;8.370;2023-04-06T01:55:01;0.52;;;0.32;;
18857;SDS011;9558;50.178;8.370;2023-04-06T01:57:49;0.90;;;0.70;;
18857;SDS011;9558;50.178;8.370;2023-04-06T02:00:36;0.73;;;0.57;;
18857;SDS011;9558;50.178;8.370;2023-04-06T02:03:23;0.70;;;0.47;;
18857;SDS011;9558;50.178;8.370;2023-04-06T02:06:09;0.30;;;0.30;;
18857;SDS011;9558;50.178;8.370;2023-04-06T02:08:56;0.70;;;0.70;;
18857;SDS011;9558;50.178;8.370;2023-04-06T02:11:43;1.35;;;0.75;;
18857;SDS011;9558;50.178;8.370;2023-04-06T02:17:19;0.20;;;0.15;;
18857;SDS011;9558;50.178;8.370;2023-04-06T02:20:06;0.32;;;0.32;;
18857;SDS011;9558;50.178;8.370;2023-04-06T02:22:53;0.20;;;0.20;;
18857;SDS011;9558;50.178;8.370;2023-04-06T02:25:40;0.43;;;0.43;;
18857;SDS011;9558;50.178;8.370;2023-04-06T02:28:27;0.22;;;0.22;;
18857;SDS011;9558;50.178;8.370;2023-04-06T02:31:15;0.70;;;0.30;;
18857;SDS011;9558;50.178;8.370;2023-04-06T02:34:02;0.57;;;0.45;;
18857;SDS011;9558;50.178;8.370;2023-04-06T02:36:49;0.55;;;0.55;;
18857;SDS011;9558;50.178;8.370;2023-04-06T02:39:36;1.13;;;0.60;;
18857;SDS011;9558;50.178;8.370;2023-04-06T02:42:22;0.68;;;0.68;;
18857;SDS011;9558;50.178;8.370;2023-04-06T02:45:09;1.15;;;0.43;;
18857;SDS011;9558;50.178;8.370;2023-04-06T02:47:58;0.95;;;0.70;;
18857;SDS011;9558;50.178;8.370;2023-04-06T02:50:44;1.95;;;0.52;;
18857;SDS011;9558;50.178;8.370;2023-04-06T02:53:31;0.57;;;0.57;;
18857;SDS011;9558;50.178;8.370;2023-04-06T02:56:18;0.22;;;0.22;;
18857;SDS011;9558;50.178;8.370;2023-04-06T02:59:06;3.25;;;0.50;;
18857;SDS011;9558;50.178;8.370;2023-04-06T03:01:53;0.45;;;0.45;;
18857;SDS011;9558;50.178;8.370;2023-04-06T03:07:28;0.28;;;0.20;;
18857;SDS011;9558;50.178;8.370;2023-04-06T03:13:02;0.55;;;0.47;;
18857;SDS011;9558;50.178;8.370;2023-04-06T03:15:48;1.67;;;0.50;;
18857;SDS011;9558;50.178;8.370;2023-04-06T03:18:35;0.30;;;0.25;;
18857;SDS011;9558;50.178;8.370;2023-04-06T03:21:24;0.47;;;0.20;;
18857;SDS011;9558;50.178;8.370;2023-04-06T03:24:10;1.00;;;0.63;;
18857;SDS011;9558;50.178;8.370;2023-04-06T03:26:58;0.80;;;0.65;;
18857;SDS011;9558;50.178;8.370;2023-04-06T03:29:45;0.85;;;0.70;;
18857;SDS011;9558;50.178;8.370;2023-04-06T03:32:32;1.23;;;0.77;;
18857;SDS011;9558;50.178;8.370;2023-04-06T03:35:19;0.57;;;0.45;;
18857;SDS011;9558;50.178;8.370;2023-04-06T03:38:07;1.20;;;0.52;;
18857;SDS011;9558;50.178;8.370;2023-04-06T03:40:54;0.13;;;0.10;;
18857;SDS011;9558;50.178;8.370;2023-04-06T03:43:41;2.08;;;0.30;;
18857;SDS011;9558;50.178;8.370;2023-04-06T03:46:27;3.03;;;1.10;;
18857;SDS011;9558;50.178;8.370;2023-04-06T03:49:14;0.22;;;0.22;;
18857;SDS011;9558;50.178;8.370;2023-04-06T03:52:01;0.22;;;0.22;;
18857;SDS011;9558;50.178;8.370;2023-04-06T03:54:49;0.57;;;0.57;;
18857;SDS011;9558;50.178;8.370;2023-04-06T03:57:36;2.33;;;0.98;;
18857;SDS011;9558;50.178;8.370;2023-04-06T04:00:24;1.52;;;0.60;;
18857;SDS011;9558;50.178;8.370;2023-04-06T04:03:10;0.60;;;0.57;;
18857;SDS011;9558;50.178;8.370;2023-04-06T04:05:57;0.47;;;0.43;;
18857;SDS011;9558;50.178;8.370;2023-04-06T04:08:44;0.25;;;0.25;;
18857;SDS011;9558;50.178;8.370;2023-04-06T04:11:32;0.30;;;0.25;;
18857;SDS011;9558;50.178;8.370;2023-04-06T04:14:19;0.32;;;0.32;;
18857;SDS011;9558;50.178;8.370;2023-04-06T04:17:06;0.70;;;0.40;;
18857;SDS011;9558;50.178;8.370;2023-04-06T04:19:53;1.05;;;0.75;;
18857;SDS011;9558;50.178;8.370;2023-04-06T04:22:40;0.40;;;0.38;;
18857;SDS011;9558;50.178;8.370;2023-04-06T04:25:27;2.05;;;1.17;;
18857;SDS011;9558;50.178;8.370;2023-04-06T04:28:15;0.82;;;0.63;;
18857;SDS011;9558;50.178;8.370;2023-04-06T04:31:02;1.92;;;0.47;;
18857;SDS011;9558;50.178;8.370;2023-04-06T04:33:49;1.30;;;0.63;;
18857;SDS011;9558;50.178;8.370;2023-04-06T04:36:36;0.60;;;0.60;;
18857;SDS011;9558;50.178;8.370;2023-04-06T04:39:22;27.15;;;7.63;;
18857;SDS011;9558;50.178;8.370;2023-04-06T04:42:09;5.43;;;3.90;;
18857;SDS011;9558;50.178;8.370;2023-04-06T04:44:57;3.47;;;2.45;;
18857;SDS011;9558;50.178;8.370;2023-04-06T04:47:44;1.45;;;1.35;;
18857;SDS011;9558;50.178;8.370;2023-04-06T04:50:31;10.30;;;1.52;;
18857;SDS011;9558;50.178;8.370;2023-04-06T04:53:18;3.17;;;1.77;;
18857;SDS011;9558;50.178;8.370;2023-04-06T04:56:05;4.32;;;1.35;;
18857;SDS011;9558;50.178;8.370;2023-04-06T04:58:52;1.02;;;0.75;;
18857;SDS011;9558;50.178;8.370;2023-04-06T05:01:40;4.60;;;1.30;;
18857;SDS011;9558;50.178;8.370;2023-04-06T05:04:27;4.75;;;3.28;;
18857;SDS011;9558;50.178;8.370;2023-04-06T05:07:14;6.00;;;1.67;;
18857;SDS011;9558;50.178;8.370;2023-04-06T05:10:04;7.10;;;1.65;;
18857;SDS011;9558;50.178;8.370;2023-04-06T05:12:51;2.38;;;1.10;;
18857;SDS011;9558;50.178;8.370;2023-04-06T05:15:38;4.00;;;1.08;;
18857;SDS011;9558;50.178;8.370;2023-04-06T05:18:27;1.58;;;0.98;;
18857;SDS011;9558;50.178;8.370;2023-04-06T05:21:14;1.00;;;0.75;;
18857;SDS011;9558;50.178;8.370;2023-04-06T05:24:01;1.85;;;1.35;;
18857;SDS011;9558;50.178;8.370;2023-04-06T05:26:48;2.90;;;1.50;;
18857;SDS011;9558;50.178;8.370;2023-04-06T05:29:35;1.20;;;1.10;;
18857;SDS011;9558;50.178;8.370;2023-04-06T05:32:22;1.50;;;1.20;;
18857;SDS011;9558;50.178;8.370;2023-04-06T05:35:11;1.70;;;1.52;;
18857;SDS011;9558;50.178;8.370;2023-04-06T05:37:59;2.63;;;0.88;;
18857;SDS011;9558;50.178;8.370;2023-04-06T05:40:45;3.03;;;1.52;;
18857;SDS011;9558;50.178;8.370;2023-04-06T05:43:32;5.00;;;1.70;;
18857;SDS011;9558;50.178;8.370;2023-04-06T05:46:19;3.42;;;1.40;;
18857;SDS011;9558;50.178;8.370;2023-04-06T05:49:06;2.63;;;1.63;;
18857;SDS011;9558;50.178;8.370;2023-04-06T05:51:54;2.08;;;1.50;;
18857;SDS011;9558;50.178;8.370;2023-04-06T05:54:41;2.15;;;1.23;;
18857;SDS011;9558;50.178;8.370;2023-04-06T05:57:28;4.43;;;1.88;;
18857;SDS011;9558;50.178;8.370;2023-04-06T06:00:15;2.60;;;1.75;;
18857;SDS011;9558;50.178;8.370;2023-04-06T06:05:51;0.55;;;0.55;;
18857;SDS011;9558;50.178;8.370;2023-04-06T06:08:39;2.85;;;1.27;;
18857;SDS011;9558;50.178;8.370;2023-04-06T06:11:26;0.95;;;0.90;;
18857;SDS011;9558;50.178;8.370;2023-04-06T06:14:13;1.58;;;1.02;;
18857;SDS011;9558;50.178;8.370;2023-04-06T06:17:00;2.38;;;1.80;;
18857;SDS011;9558;50.178;8.370;2023-04-06T06:19:47;2.47;;;1.30;;
18857;SDS011;9558;50.178;8.370;2023-04-06T06:22:34;3.53;;;1.80;;
18857;SDS011;9558;50.178;8.370;2023-04-06T06:25:22;1.42;;;1.00;;
18857;SDS011;9558;50.178;8.370;2023-04-06T06:28:09;1.60;;;1.15;;
18857;SDS011;9558;50.178;8.370;2023-04-06T06:30:56;1.05;;;0.85;;
18857;SDS011;9558;50.178;8.370;2023-04-06T06:33:43;0.95;;;0.65;;
18857;SDS011;9558;50.178;8.370;2023-04-06T06:36:30;1.25;;;0.90;;
18857;SDS011;9558;50.178;8.370;2023-04-06T06:39:17;2.83;;;1.30;;
18857;SDS011;9558;50.178;8.370;2023-04-06T06:42:05;4.90;;;1.63;;
18857;SDS011;9558;50.178;8.370;2023-04-06T06:44:52;1.20;;;1.05;;
18857;SDS011;9558;50.178;8.370;2023-04-06T06:47:40;1.48;;;1.38;;
18857;SDS011;9558;50.178;8.370;2023-04-06T06:50:27;0.95;;;0.73;;
18857;SDS011;9558;50.178;8.370;2023-04-06T06:53:14;5.50;;;2.22;;
18857;SDS011;9558;50.178;8.370;2023-04-06T06:56:01;1.40;;;1.05;;
18857;SDS011;9558;50.178;8.370;2023-04-06T06:58:49;2.30;;;1.67;;
18857;SDS011;9558;50.178;8.370;2023-04-06T07:01:36;1.15;;;0.98;;
18857;SDS011;9558;50.178;8.370;2023-04-06T07:04:23;2.25;;;2.00;;
18857;SDS011;9558;50.178;8.370;2023-04-06T07:07:10;3.67;;;2.17;;
18857;SDS011;9558;50.178;8.370;2023-04-06T07:12:44;3.13;;;1.80;;
18857;SDS011;9558;50.178;8.370;2023-04-06T07:15:32;7.00;;;3.08;;
18857;SDS011;9558;50.178;8.370;2023-04-06T07:18:19;6.50;;;2.53;;
18857;SDS011;9558;50.178;8.370;2023-04-06T07:21:06;3.15;;;2.20;;
18857;SDS011;9558;50.178;8.370;2023-04-06T07:23:53;4.72;;;2.95;;
18857;SDS011;9558;50.178;8.370;2023-04-06T07:26:40;5.65;;;2.78;;
18857;SDS011;9558;50.178;8.370;2023-04-06T07:29:28;4.40;;;2.78;;
18857;SDS011;9558;50.178;8.370;2023-04-06T07:32:17;5.25;;;3.15;;
18857;SDS011;9558;50.178;8.370;2023-04-06T07:35:04;6.28;;;3.97;;
18857;SDS011;9558;50.178;8.370;2023-04-06T07:37:51;5.55;;;3.17;;
18857;SDS011;9558;50.178;8.370;2023-04-06T07:40:38;5.72;;;2.72;;
18857;SDS011;9558;50.178;8.370;2023-04-06T07:43:25;9.82;;;3.65;;
18857;SDS011;9558;50.178;8.370;2023-04-06T07:46:12;6.88;;;3.72;;
18857;SDS011;9558;50.178;8.370;2023-04-06T07:49:00;14.65;;;3.92;;
18857;SDS011;9558;50.178;8.370;2023-04-06T07:51:47;4.80;;;2.75;;
18857;SDS011;9558;50.178;8.370;2023-04-06T07:54:34;6.32;;;3.13;;
18857;SDS011;9558;50.178;8.370;2023-04-06T07:57:21;8.32;;;3.00;;
18857;SDS011;9558;50.178;8.370;2023-04-06T08:00:08;6.57;;;3.33;;
18857;SDS011;9558;50.178;8.370;2023-04-06T08:02:56;4.78;;;2.78;;
18857;SDS011;9558;50.178;8.370;2023-04-06T08:05:44;6.18;;;3.70;;
18857;SDS011;9558;50.178;8.370;2023-04-06T08:08:31;4.70;;;2.88;;
18857;SDS011;9558;50.178;8.370;2023-04-06T08:11:18;7.22;;;3.17;;
18857;SDS011;9558;50.178;8.370;2023-04-06T08:14:05;5.18;;;2.97;;
18857;SDS011;9558;50.178;8.370;2023-04-06T08:16:52;6.35;;;3.15;;
18857;SDS011;9558;50.178;8.370;2023-04-06T08:19:39;5.07;;;3.00;;
18857;SDS011;9558;50.178;8.370;2023-04-06T08:22:29;4.00;;;3.17;;
18857;SDS011;9558;50.178;8.370;2023-04-06T08:25:16;5.50;;;3.03;;
18857;SDS011;9558;50.178;8.370;2023-04-06T08:28:03;4.38;;;2.47;;
18857;SDS011;9558;50.178;8.370;2023-04-06T08:30:50;7.03;;;3.17;;
18857;SDS011;9558;50.178;8.370;2023-04-06T08:33:37;4.50;;;2.50;;
18857;SDS011;9558;50.178;8.370;2023-04-06T08:36:24;4.78;;;3.25;;
18857;SDS011;9558;50.178;8.370;2023-04-06T08:39:12;6.70;;;2.92;;
18857;SDS011;9558;50.178;8.370;2023-04-06T08:42:00;5.90;;;3.08;;
18857;SDS011;9558;50.178;8.370;2023-04-06T08:44:48;4.00;;;2.80;;
18857;SDS011;9558;50.178;8.370;2023-04-06T08:47:36;3.88;;;2.88;;
18857;SDS011;9558;50.178;8.370;2023-04-06T08:50:23;7.20;;;2.47;;
18857;SDS011;9558;50.178;8.370;2023-04-06T08:53:11;4.20;;;2.28;;
18857;SDS011;9558;50.178;8.370;2023-04-06T08:56:00;5.10;;;2.72;;
18857;SDS011;9558;50.178;8.370;2023-04-06T08:58:48;5.07;;;3.03;;
18857;SDS011;9558;50.178;8.370;2023-04-06T09:01:37;4.55;;;2.53;;
18857;SDS011;9558;50.178;8.370;2023-04-06T09:04:26;5.80;;;2.50;;
18857;SDS011;9558;50.178;8.370;2023-04-06T09:07:13;4.50;;;2.55;;
18857;SDS011;9558;50.178;8.370;2023-04-06T09:10:00;4.35;;;2.60;;
18857;SDS011;9558;50.178;8.370;2023-04-06T09:12:49;6.15;;;2.90;;
18857;SDS011;9558;50.178;8.370;2023-04-06T09:15:36;6.22;;;2.80;;
18857;SDS011;9558;50.178;8.370;2023-04-06T09:18:27;5.70;;;2.97;;
18857;SDS011;9558;50.178;8.370;2023-04-06T09:21:16;5.45;;;2.75;;
18857;SDS011;9558;50.178;8.370;2023-04-06T09:24:04;5.28;;;2.40;;
18857;SDS011;9558;50.178;8.370;2023-04-06T09:26:52;5.15;;;2.70;;
18857;SDS011;9558;50.178;8.370;2023-04-06T09:29:41;6.28;;;3.05;;
18857;SDS011;9558;50.178;8.370;2023-04-06T09:32:28;5.32;;;2.70;;
18857;SDS011;9558;50.178;8.370;2023-04-06T09:35:15;11.27;;;3.22;;
18857;SDS011;9558;50.178;8.370;2023-04-06T09:38:09;7.38;;;3.10;;
18857;SDS011;9558;50.178;8.370;2023-04-06T09:40:57;5.75;;;3.58;;
18857;SDS011;9558;50.178;8.370;2023-04-06T09:43:44;8.57;;;2.97;;
18857;SDS011;9558;50.178;8.370;2023-04-06T09:46:33;7.97;;;3.65;;
18857;SDS011;9558;50.178;8.370;2023-04-06T09:49:21;6.20;;;3.08;;
18857;SDS011;9558;50.178;8.370;2023-04-06T09:52:10;7.55;;;3.38;;
18857;SDS011;9558;50.178;8.370;2023-04-06T09:54:59;9.73;;;3.63;;
18857;SDS011;9558;50.178;8.370;2023-04-06T09:57:50;7.45;;;3.47;;
18857;SDS011;9558;50.178;8.370;2023-04-06T10:00:43;9.75;;;3.85;;
18857;SDS011;9558;50.178;8.370;2023-04-06T10:03:36;6.25;;;3.13;;
18857;SDS011;9558;50.178;8.370;2023-04-06T10:06:31;6.53;;;3.33;;
18857;SDS011;9558;50.178;8.370;2023-04-06T10:09:21;8.82;;;3.92;;
18857;SDS011;9558;50.178;8.370;2023-04-06T10:12:14;7.05;;;3.33;;
18857;SDS011;9558;50.178;8.370;2023-04-06T10:15:01;6.32;;;3.33;;
18857;SDS011;9558;50.178;8.370;2023-04-06T10:17:48;13.25;;;3.80;;
18857;SDS011;9558;50.178;8.370;2023-04-06T10:20:38;8.50;;;4.07;;
18857;SDS011;9558;50.178;8.370;2023-04-06T10:23:31;6.75;;;3.67;;
18857;SDS011;9558;50.178;8.370;2023-04-06T10:26:20;7.38;;;4.03;;
18857;SDS011;9558;50.178;8.370;2023-04-06T10:29:07;6.80;;;4.03;;
18857;SDS011;9558;50.178;8.370;2023-04-06T10:31:54;7.13;;;3.75;;
18857;SDS011;9558;50.178;8.370;2023-04-06T10:34:41;5.80;;;2.97;;
18857;SDS011;9558;50.178;8.370;2023-04-06T10:37:45;5.40;;;3.40;;
18857;SDS011;9558;50.178;8.370;2023-04-06T10:40:35;10.20;;;3.88;;
18857;SDS011;9558;50.178;8.370;2023-04-06T10:43:22;6.55;;;3.60;;
18857;SDS011;9558;50.178;8.370;2023-04-06T10:46:09;5.63;;;3.63;;
18857;SDS011;9558;50.178;8.370;2023-04-06T10:48:57;10.07;;;3.72;;
18857;SDS011;9558;50.178;8.370;2023-04-06T10:51:50;8.07;;;3.75;;
18857;SDS011;9558;50.178;8.370;2023-04-06T10:54:40;6.90;;;3.70;;
18857;SDS011;9558;50.178;8.370;2023-04-06T10:57:28;8.60;;;3.95;;
18857;SDS011;9558;50.178;8.370;2023-04-06T11:00:18;7.00;;;3.10;;
18857;SDS011;9558;50.178;8.370;2023-04-06T11:03:06;6.25;;;3.45;;
18857;SDS011;9558;50.178;8.370;2023-04-06T11:05:53;9.27;;;3.60;;
18857;SDS011;9558;50.178;8.370;2023-04-06T11:08:40;5.20;;;2.47;;
18857;SDS011;9558;50.178;8.370;2023-04-06T11:11:28;7.45;;;3.67;;
18857;SDS011;9558;50.178;8.370;2023-04-06T11:14:15;7.63;;;3.58;;
18857;SDS011;9558;50.178;8.370;2023-04-06T11:17:02;8.50;;;3.85;;
18857;SDS011;9558;50.178;8.370;2023-04-06T11:19:49;7.03;;;4.22;;
18857;SDS011;9558;50.178;8.370;2023-04-06T11:22:36;5.78;;;3.28;;
18857;SDS011;9558;50.178;8.370;2023-04-06T11:25:34;7.05;;;3.70;;
18857;SDS011;9558;50.178;8.370;2023-04-06T11:28:23;7.82;;;4.00;;
18857;SDS011;9558;50.178;8.370;2023-04-06T11:31:10;8.55;;;4.22;;
18857;SDS011;9558;50.178;8.370;2023-04-06T11:33:57;6.07;;;3.38;;
18857;SDS011;9558;50.178;8.370;2023-04-06T11:36:45;8.73;;;4.28;;
18857;SDS011;9558;50.178;8.370;2023-04-06T11:39:37;6.43;;;3.63;;
18857;SDS011;9558;50.178;8.370;2023-04-06T11:42:26;10.20;;;4.25;;
18857;SDS011;9558;50.178;8.370;2023-04-06T11:45:16;10.60;;;4.28;;
18857;SDS011;9558;50.178;8.370;2023-04-06T11:48:03;9.15;;;3.72;;
18857;SDS011;9558;50.178;8.370;2023-04-06T11:50:54;6.63;;;3.40;;
18857;SDS011;9558;50.178;8.370;2023-04-06T11:53:43;8.65;;;4.22;;
18857;SDS011;9558;50.178;8.370;2023-04-06T11:56:31;9.65;;;4.70;;
18857;SDS011;9558;50.178;8.370;2023-04-06T11:59:18;8.75;;;4.65;;
18857;SDS011;9558;50.178;8.370;2023-04-06T12:02:08;6.57;;;3.80;;
18857;SDS011;9558;50.178;8.370;2023-04-06T12:04:55;7.22;;;4.05;;
18857;SDS011;9558;50.178;8.370;2023-04-06T12:07:42;8.25;;;3.63;;
18857;SDS011;9558;50.178;8.370;2023-04-06T12:10:29;7.70;;;3.75;;
18857;SDS011;9558;50.178;8.370;2023-04-06T12:13:16;7.20;;;3.72;;
18857;SDS011;9558;50.178;8.370;2023-04-06T12:16:03;8.25;;;4.43;;
18857;SDS011;9558;50.178;8.370;2023-04-06T12:18:51;7.20;;;3.88;;
18857;SDS011;9558;50.178;8.370;2023-04-06T12:21:38;8.80;;;3.92;;
18857;SDS011;9558;50.178;8.370;2023-04-06T12:24:25;10.48;;;4.18;;
18857;SDS011;9558;50.178;8.370;2023-04-06T12:27:14;6.88;;;4.47;;
18857;SDS011;9558;50.178;8.370;2023-04-06T12:30:00;5.10;;;3.55;;
18857;SDS011;9558;50.178;8.370;2023-04-06T12:32:47;9.10;;;4.75;;
18857;SDS011;9558;50.178;8.370;2023-04-06T12:35:36;16.75;;;4.10;;
18857;SDS011;9558;50.178;8.370;2023-04-06T12:38:24;9.80;;;4.30;;
18857;SDS011;9558;50.178;8.370;2023-04-06T12:41:11;6.35;;;3.30;;
18857;SDS011;9558;50.178;8.370;2023-04-06T12:43:58;8.60;;;4.00;;
18857;SDS011;9558;50.178;8.370;2023-04-06T12:46:45;8.18;;;4.50;;
18857;SDS011;9558;50.178;8.370;2023-04-06T12:49:32;10.60;;;3.95;;
18857;SDS011;9558;50.178;8.370;2023-04-06T12:52:20;8.07;;;4.40;;
18857;SDS011;9558;50.178;8.370;2023-04-06T12:55:08;11.65;;;3.88;;
18857;SDS011;9558;50.178;8.370;2023-04-06T12:57:55;8.52;;;4.15;;
18857;SDS011;9558;50.178;8.370;2023-04-06T13:00:42;9.30;;;3.97;;
18857;SDS011;9558;50.178;8.370;2023-04-06T13:03:29;6.00;;;3.15;;
18857;SDS011;9558;50.178;8.370;2023-04-06T13:06:16;8.82;;;3.63;;
18857;SDS011;9558;50.178;8.370;2023-04-06T13:09:04;8.55;;;4.00;;
18857;SDS011;9558;50.178;8.370;2023-04-06T13:11:51;8.77;;;4.30;;
18857;SDS011;9558;50.178;8.370;2023-04-06T13:14:38;11.40;;;4.82;;
18857;SDS011;9558;50.178;8.370;2023-04-06T13:17:26;5.00;;;2.85;;
18857;SDS011;9558;50.178;8.370;2023-04-06T13:20:13;17.48;;;3.83;;
18857;SDS011;9558;50.178;8.370;2023-04-06T13:23:00;7.50;;;3.72;;
18857;SDS011;9558;50.178;8.370;2023-04-06T13:25:48;9.18;;;3.85;;
18857;SDS011;9558;50.178;8.370;2023-04-06T13:28:44;7.93;;;4.00;;
18857;SDS011;9558;50.178;8.370;2023-04-06T13:31:30;8.27;;;3.20;;
18857;SDS011;9558;50.178;8.370;2023-04-06T13:34:17;7.97;;;3.92;;
18857;SDS011;9558;50.178;8.370;2023-04-06T13:37:04;6.40;;;3.42;;
18857;SDS011;9558;50.178;8.370;2023-04-06T13:39:51;8.20;;;4.15;;
18857;SDS011;9558;50.178;8.370;2023-04-06T13:42:39;10.13;;;3.95;;
18857;SDS011;9558;50.178;8.370;2023-04-06T13:45:29;8.57;;;3.90;;
18857;SDS011;9558;50.178;8.370;2023-04-06T13:48:16;8.35;;;3.42;;
18857;SDS011;9558;50.178;8.370;2023-04-06T13:51:09;5.60;;;3.15;;
18857;SDS011;9558;50.178;8.370;2023-04-06T13:53:56;5.43;;;3.05;;
18857;SDS011;9558;50.178;8.370;2023-04-06T13:56:43;6.30;;;3.40;;
18857;SDS011;9558;50.178;8.370;2023-04-06T13:59:33;5.63;;;3.38;;
18857;SDS011;9558;50.178;8.370;2023-04-06T14:02:20;9.93;;;4.03;;
18857;SDS011;9558;50.178;8.370;2023-04-06T14:05:12;8.07;;;3.58;;
18857;SDS011;9558;50.178;8.370;2023-04-06T14:08:00;8.57;;;3.10;;
18857;SDS011;9558;50.178;8.370;2023-04-06T14:10:48;5.82;;;3.00;;
18857;SDS011;9558;50.178;8.370;2023-04-06T14:13:35;5.93;;;2.85;;
18857;SDS011;9558;50.178;8.370;2023-04-06T14:16:24;9.10;;;3.53;;
18857;SDS011;9558;50.178;8.370;2023-04-06T14:19:11;7.05;;;3.55;;
18857;SDS011;9558;50.178;8.370;2023-04-06T14:21:59;5.80;;;2.70;;
18857;SDS011;9558;50.178;8.370;2023-04-06T14:24:47;10.70;;;3.55;;
18857;SDS011;9558;50.178;8.370;2023-04-06T14:27:33;5.88;;;2.95;;
18857;SDS011;9558;50.178;8.370;2023-04-06T14:30:20;8.60;;;2.90;;
18857;SDS011;9558;50.178;8.370;2023-04-06T14:33:08;5.90;;;2.63;;
18857;SDS011;9558;50.178;8.370;2023-04-06T14:35:56;5.65;;;2.97;;
18857;SDS011;9558;50.178;8.370;2023-04-06T14:38:43;6.78;;;3.00;;
18857;SDS011;9558;50.178;8.370;2023-04-06T14:41:32;6.00;;;2.67;;
18857;SDS011;9558;50.178;8.370;2023-04-06T14:44:19;5.85;;;3.30;;
18857;SDS011;9558;50.178;8.370;2023-04-06T14:47:07;6.07;;;3.08;;
18857;SDS011;9558;50.178;8.370;2023-04-06T14:49:55;7.90;;;3.05;;
18857;SDS011;9558;50.178;8.370;2023-04-06T14:52:42;8.70;;;3.17;;
18857;SDS011;9558;50.178;8.370;2023-04-06T14:55:31;6.60;;;2.78;;
18857;SDS011;9558;50.178;8.370;2023-04-06T14:58:19;13.68;;;2.67;;
18857;SDS011;9558;50.178;8.370;2023-04-06T15:01:06;5.97;;;3.10;;
18857;SDS011;9558;50.178;8.370;2023-04-06T15:03:53;3.75;;;2.40;;
18857;SDS011;9558;50.178;8.370;2023-04-06T15:06:41;4.50;;;2.28;;
18857;SDS011;9558;50.178;8.370;2023-04-06T15:09:28;4.50;;;2.63;;
18857;SDS011;9558;50.178;8.370;2023-04-06T15:12:15;7.85;;;3.25;;
18857;SDS011;9558;50.178;8.370;2023-04-06T15:15:02;3.60;;;2.13;;
18857;SDS011;9558;50.178;8.370;2023-04-06T15:17:50;3.78;;;2.28;;
18857;SDS011;9558;50.178;8.370;2023-04-06T15:20:37;5.93;;;2.30;;
18857;SDS011;9558;50.178;8.370;2023-04-06T15:23:25;3.78;;;2.00;;
18857;SDS011;9558;50.178;8.370;2023-04-06T15:26:14;4.53;;;2.13;;
18857;SDS011;9558;50.178;8.370;2023-04-06T15:29:01;4.15;;;1.90;;
18857;SDS011;9558;50.178;8.370;2023-04-06T15:31:48;5.15;;;2.42;;
18857;SDS011;9558;50.178;8.370;2023-04-06T15:34:35;4.78;;;2.22;;
18857;SDS011;9558;50.178;8.370;2023-04-06T15:37:21;4.72;;;2.30;;
18857;SDS011;9558;50.178;8.370;2023-04-06T15:40:10;4.63;;;2.35;;
18857;SDS011;9558;50.178;8.370;2023-04-06T15:42:58;5.93;;;2.28;;
18857;SDS011;9558;50.178;8.370;2023-04-06T15:45:45;7.47;;;2.50;;
18857;SDS011;9558;50.178;8.370;2023-04-06T15:48:32;4.90;;;2.47;;
18857;SDS011;9558;50.178;8.370;2023-04-06T15:51:19;2.90;;;2.10;;
18857;SDS011;9558;50.178;8.370;2023-04-06T15:54:06;3.88;;;2.30;;
18857;SDS011;9558;50.178;8.370;2023-04-06T15:56:54;6.22;;;2.33;;
18857;SDS011;9558;50.178;8.370;2023-04-06T15:59:41;4.07;;;2.40;;
18857;SDS011;9558;50.178;8.370;2023-04-06T16:02:27;4.68;;;2.40;;
18857;SDS011;9558;50.178;8.370;2023-04-06T16:05:14;3.30;;;1.88;;
18857;SDS011;9558;50.178;8.370;2023-04-06T16:08:01;3.75;;;1.70;;
18857;SDS011;9558;50.178;8.370;2023-04-06T16:10:48;5.60;;;2.00;;
18857;SDS011;9558;50.178;8.370;2023-04-06T16:13:36;5.88;;;2.45;;
18857;SDS011;9558;50.178;8.370;2023-04-06T16:16:23;7.07;;;1.85;;
18857;SDS011;9558;50.178;8.370;2023-04-06T16:19:10;4.10;;;1.83;;
18857;SDS011;9558;50.178;8.370;2023-04-06T16:21:57;3.80;;;1.85;;
18857;SDS011;9558;50.178;8.370;2023-04-06T16:24:43;3.85;;;1.90;;
18857;SDS011;9558;50.178;8.370;2023-04-06T16:27:30;5.25;;;1.63;;
18857;SDS011;9558;50.178;8.370;2023-04-06T16:30:18;3.97;;;1.73;;
18857;SDS011;9558;50.178;8.370;2023-04-06T16:33:05;3.83;;;1.92;;
18857;SDS011;9558;50.178;8.370;2023-04-06T16:35:52;3.33;;;2.40;;
18857;SDS011;9558;50.178;8.370;2023-04-06T16:38:39;4.18;;;2.03;;
18857;SDS011;9558;50.178;8.370;2023-04-06T16:41:25;6.80;;;1.88;;
18857;SDS011;9558;50.178;8.370;2023-04-06T16:44:13;5.05;;;1.88;;
18857;SDS011;9558;50.178;8.370;2023-04-06T16:47:01;1.85;;;1.17;;
18857;SDS011;9558;50.178;8.370;2023-04-06T16:49:49;3.25;;;1.88;;
18857;SDS011;9558;50.178;8.370;2023-04-06T16:52:37;2.38;;;1.35;;
18857;SDS011;9558;50.178;8.370;2023-04-06T16:55:23;2.53;;;1.77;;
18857;SDS011;9558;50.178;8.370;2023-04-06T16:58:10;3.88;;;1.70;;
18857;SDS011;9558;50.178;8.370;2023-04-06T17:00:57;2.58;;;1.63;;
18857;SDS011;9558;50.178;8.370;2023-04-06T17:03:46;2.20;;;1.27;;
18857;SDS011;9558;50.178;8.370;2023-04-06T17:06:33;4.95;;;1.60;;
18857;SDS011;9558;50.178;8.370;2023-04-06T17:09:20;1.17;;;0.93;;
18857;SDS011;9558;50.178;8.370;2023-04-06T17:12:08;2.42;;;1.70;;
18857;SDS011;9558;50.178;8.370;2023-04-06T17:14:54;3.90;;;1.90;;
18857;SDS011;9558;50.178;8.370;2023-04-06T17:17:41;2.63;;;1.50;;
18857;SDS011;9558;50.178;8.370;2023-04-06T17:20:30;1.75;;;1.30;;